Time;durP1;ratioP1;P1;durP2;ratioP2;P2;SDS_P1;SDS_P2;PMS_P1;PMS_P2;Temp;Humidity;BMP_temperature;BMP_pressure;BME280_temperature;BME280_humidity;BME280_pressure;Samples;Min_cycle;Max_cycle;Signal;HPM_P1;HPM_P2
2023/07/03 00:00:12;;;;;;;9.65;3.30;;;;;;;22.33;46.25;100915.28;5071526;28;19931;-66
2023/07/03 00:02:42;;;;;;;9.85;3.53;;;;;;;22.35;46.77;100912.13;5073621;28;20056;-65
2023/07/03 00:05:10;;;;;;;11.68;3.95;;;;;;;22.40;44.77;100908.97;5074131;28;20052;-66
2023/07/03 00:07:38;;;;;;;12.70;3.50;;;;;;;;;;5073325;28;20048;-65
2023/07/03 00:10:06;;;;;;;10.27;3.47;;;;;;;21.70;48.38;100911.03;5071935;28;20072;-66
2023/07/03 00:12:34;;;;;;;12.57;3.75;;;;;;;20.84;48.32;100921.47;5068214;28;20045;-66
2023/07/03 00:15:02;;;;;;;11.35;3.72;;;;;;;21.10;49.80;100924.28;5052958;28;20093;-66
2023/07/03 00:17:30;;;;;;;14.32;3.80;;;;;;;21.48;47.81;100907.16;5053288;28;20049;-65
2023/07/03 00:19:57;;;;;;;11.27;3.22;;;;;;;21.58;49.06;100922.50;5060075;28;20055;-65
2023/07/03 00:22:25;;;;;;;12.13;4.03;;;;;;;22.05;48.17;100909.44;5092051;28;20062;-65
2023/07/03 00:24:52;;;;;;;12.95;3.53;;;;;;;21.77;46.58;100913.91;5083428;28;20063;-67
2023/07/03 00:27:19;;;;;;;9.38;3.25;;;;;;;20.72;52.21;100908.50;5083220;28;20048;-66
2023/07/03 00:29:47;;;;;;;11.27;3.50;;;;;;;20.79;52.35;100911.41;5063745;28;20076;-66
2023/07/03 00:32:15;;;;;;;11.00;3.50;;;;;;;21.29;51.35;100907.31;5051709;28;20049;-67
2023/07/03 00:34:42;;;;;;;10.45;3.63;;;;;;;21.74;49.94;100895.06;5051650;28;20056;-66
2023/07/03 00:37:10;;;;;;;10.93;3.33;;;;;;;22.09;47.80;100885.03;5052944;28;20053;-67
2023/07/03 00:39:38;;;;;;;13.40;3.95;;;;;;;22.50;47.54;100888.59;5048084;28;20546;-65
2023/07/03 00:42:06;;;;;;;11.07;3.45;;;;;;;22.21;48.33;100889.56;5047244;28;20052;-67
2023/07/03 00:44:33;;;;;;;11.98;3.40;;;;;;;22.15;47.25;100889.09;5061899;28;20064;-66
2023/07/03 00:47:00;;;;;;;11.88;3.58;;;;;;;22.33;48.06;100886.44;5091601;28;20048;-66
2023/07/03 00:49:28;;;;;;;9.45;3.03;;;;;;;22.55;47.17;100884.63;5055928;28;20071;-65
2023/07/03 00:51:56;;;;;;;14.73;4.10;;;;;;;22.22;46.97;100889.16;5051459;28;20074;-66
2023/07/03 00:54:23;;;;;;;13.65;3.83;;;;;;;21.92;48.84;100890.47;5035331;28;20082;-65
2023/07/03 00:56:51;;;;;;;9.25;3.25;;;;;;;22.25;47.70;100877.16;5058747;28;20045;-66
2023/07/03 00:59:18;;;;;;;9.95;3.50;;;;;;;22.39;47.79;100884.88;5058609;28;20063;-66
2023/07/03 01:02:07;;;;;;;12.63;3.50;;;;;;;21.96;48.38;100883.72;5071907;28;20053;-65
2023/07/03 01:05:04;;;;;;;13.50;3.88;;;;;;;22.14;48.45;100886.69;5054598;28;20052;-66
2023/07/03 01:07:33;;;;;;;11.23;3.53;;;;;;;22.13;48.22;100876.63;5055104;28;20413;-66
2023/07/03 01:10:06;;;;;;;9.35;3.25;;;;;;;21.71;49.48;100887.41;5052911;28;20586;-67
2023/07/03 01:12:37;;;;;;;12.07;4.07;;;;;;;21.32;50.96;100886.16;5058128;28;20508;-66
2023/07/03 01:15:09;;;;;;;12.73;3.60;;;;;;;21.81;50.04;100890.34;5057794;28;20057;-66
2023/07/03 01:17:40;;;;;;;9.25;3.65;;;;;;;22.05;49.10;100887.00;5074598;28;20068;-66
2023/07/03 01:20:13;;;;;;;12.40;4.00;;;;;;;22.36;48.43;100880.03;5079896;28;20055;-66
2023/07/03 01:22:41;;;;;;;9.50;3.60;;;;;;;21.57;50.00;100888.06;5094808;28;20056;-65
2023/07/03 01:25:11;;;;;;;13.63;4.18;;;;;;;21.54;51.15;100879.59;5082955;28;20048;-66
2023/07/03 01:27:42;;;;;;;12.35;4.15;;;;;;;21.80;49.30;100877.53;5036225;28;20053;-66
2023/07/03 01:30:13;;;;;;;10.13;3.90;;;;;;;22.25;49.47;100884.75;5054963;28;20049;-66
2023/07/03 01:32:42;;;;;;;11.68;4.07;;;;;;;22.19;49.33;100881.50;5054909;28;20718;-66
2023/07/03 01:35:11;;;;;;;10.95;4.15;;;;;;;22.44;49.09;100881.69;5038183;28;20061;-65
2023/07/03 01:37:40;;;;;;;10.82;3.60;;;;;;;22.01;50.06;100882.53;5054939;28;20054;-65
2023/07/03 01:40:10;;;;;;;11.95;3.97;;;;;;;22.39;49.38;100876.44;5054644;28;20052;-66
2023/07/03 01:42:40;;;;;;;9.82;3.55;;;;;;;22.38;49.13;100872.06;5038317;28;20052;-66
2023/07/03 01:45:09;;;;;;;11.48;4.13;;;;;;;22.65;48.92;100881.88;5046837;28;20043;-66
2023/07/03 01:47:37;;;;;;;13.00;3.97;;;;;;;22.39;49.55;100879.25;5094418;28;20048;-67
2023/07/03 01:50:11;;;;;;;11.07;3.28;;;;;;;22.42;49.69;100872.84;5095848;28;20052;-65
2023/07/03 01:52:42;;;;;;;9.65;3.58;;;;;;;22.30;49.61;100871.19;5094055;28;20059;-65
2023/07/03 01:55:14;;;;;;;12.50;4.45;;;;;;;22.13;50.13;100882.25;5095669;28;20044;-66
2023/07/03 01:58:05;;;;;;;11.73;3.72;;;;;;;21.98;50.77;100883.31;5077683;28;20047;-66
2023/07/03 02:00:34;;;;;;;;;;;;;;;21.73;51.83;100885.84;5093136;28;20048;-66
2023/07/03 02:03:07;;;;;;;13.02;4.47;;;;;;;21.51;51.59;100886.00;5056834;28;19955;-66
2023/07/03 02:05:38;;;;;;;13.65;3.85;;;;;;;21.48;52.81;100876.34;5073734;28;20075;-66
2023/07/03 02:08:07;;;;;;;15.07;4.15;;;;;;;21.54;52.49;100877.63;5057672;28;20048;-66
2023/07/03 02:10:38;;;;;;;11.30;4.22;;;;;;;22.20;51.25;100880.31;5075268;28;20044;-65
2023/07/03 02:13:05;;;;;;;11.02;4.00;;;;;;;22.39;50.28;100872.88;5073535;28;20056;-65
2023/07/03 02:15:35;;;;;;;10.35;4.10;;;;;;;22.66;49.46;100877.09;5073969;28;20054;-66
2023/07/03 02:18:04;;;;;;;10.57;3.90;;;;;;;22.69;49.74;100870.69;5057587;28;20052;-66
2023/07/03 02:20:32;;;;;;;11.02;4.05;;;;;;;22.70;49.29;100867.47;5081697;28;20592;-65
2023/07/03 02:22:59;;;;;;;10.70;4.05;;;;;;;22.79;49.10;100875.56;5093189;28;20052;-66
2023/07/03 02:25:27;;;;;;;11.57;4.03;;;;;;;22.70;49.42;100875.13;5083521;28;20052;-66
2023/07/03 02:27:56;;;;;;;14.52;4.90;;;;;;;22.86;48.81;100870.78;5085339;28;20040;-66
2023/07/03 02:30:23;;;;;;;12.77;4.05;;;;;;;22.95;48.53;100860.00;5074412;28;20052;-66
2023/07/03 02:32:51;;;;;;;12.25;4.63;;;;;;;22.97;48.79;100857.63;5053116;28;20045;-65
2023/07/03 02:35:18;;;;;;;12.90;4.35;;;;;;;22.88;48.75;100848.75;5051426;28;20052;-66
2023/07/03 02:37:46;;;;;;;9.80;4.03;;;;;;;22.88;48.78;100845.94;5053279;28;20060;-66
2023/07/03 02:40:14;;;;;;;12.15;4.53;;;;;;;22.65;49.04;100848.19;5054836;28;20116;-66
2023/07/03 02:42:41;;;;;;;9.10;3.75;;;;;;;22.89;49.04;100852.34;5054805;28;20072;-66
2023/07/03 02:45:09;;;;;;;10.13;4.13;;;;;;;22.89;48.92;100853.16;5063295;28;20036;-66
2023/07/03 02:47:37;;;;;;;10.15;3.97;;;;;;;22.71;49.42;100857.88;5060443;28;20056;-66
2023/07/03 02:50:08;;;;;;;12.25;4.82;;;;;;;22.60;49.63;100865.41;5037362;28;20064;-66
2023/07/03 02:52:37;;;;;;;10.13;3.72;;;;;;;22.39;50.60;100858.81;5036209;28;20068;-66
2023/07/03 02:55:08;;;;;;;12.80;4.10;;;;;;;22.69;49.58;100862.25;5052946;28;20508;-66
2023/07/03 02:57:35;;;;;;;9.25;4.30;;;;;;;22.72;49.47;100864.28;5054623;28;20060;-66
2023/07/03 03:00:05;;;;;;;12.70;4.10;;;;;;;22.73;49.67;100861.09;5056381;28;20048;-66
2023/07/03 03:02:33;;;;;;;9.35;3.95;;;;;;;22.68;49.88;100858.66;5073609;28;20059;-66
2023/07/03 03:05:01;;;;;;;12.20;4.80;;;;;;;22.76;49.38;100862.31;5044693;28;20057;-66
2023/07/03 03:07:28;;;;;;;11.27;4.45;;;;;;;22.77;49.57;100869.56;5052928;28;20052;-66
2023/07/03 03:09:56;;;;;;;13.70;4.78;;;;;;;22.80;49.61;100865.94;5052632;28;20057;-65
2023/07/03 03:12:23;;;;;;;10.27;4.50;;;;;;;22.71;49.96;100862.69;5053770;28;20428;-66
2023/07/03 03:14:55;;;;;;;10.75;4.03;;;;;;;22.46;50.87;100867.28;5052268;28;20528;-66
2023/07/03 03:17:22;;;;;;;9.73;4.35;;;;;;;22.08;51.74;100862.97;5052583;28;20048;-66
2023/07/03 03:19:52;;;;;;;10.43;4.78;;;;;;;22.11;51.53;100854.59;5067586;28;20045;-66
2023/07/03 03:22:21;;;;;;;14.30;5.65;;;;;;;21.43;53.59;100857.06;5075729;28;20074;-65
2023/07/03 03:24:49;;;;;;;13.75;5.78;;;;;;;21.30;52.95;100860.50;5083877;28;20503;-66
2023/07/03 03:27:16;;;;;;;13.57;5.28;;;;;;;20.88;55.63;100858.75;5072088;28;20056;-66
2023/07/03 03:29:44;;;;;;;15.50;5.95;;;;;;;21.42;54.24;100869.47;5074368;28;20053;-67
2023/07/03 03:32:12;;;;;;;13.93;5.30;;;;;;;21.73;53.81;100863.41;5062253;28;20060;-66
2023/07/03 03:34:39;;;;;;;11.80;5.72;;;;;;;21.69;53.32;100856.16;5053105;28;20408;-66
2023/07/03 03:37:07;;;;;;;11.30;4.85;;;;;;;21.51;54.28;100855.97;5052149;28;20416;-67
2023/07/03 03:39:34;;;;;;;13.10;5.57;;;;;;;21.86;53.27;100856.34;5051869;28;20051;-66
2023/07/03 03:42:02;;;;;;;15.15;5.40;;;;;;;21.73;53.56;100851.38;5051741;28;20057;-66
2023/07/03 03:44:30;;;;;;;18.30;6.70;;;;;;;21.65;53.80;100856.13;5019630;28;20507;-66
2023/07/03 03:46:57;;;;;;;18.27;5.95;;;;;;;20.98;56.30;100860.06;5074517;28;20068;-66
2023/07/03 03:49:26;;;;;;;13.30;5.50;;;;;;;20.32;57.74;100854.28;5071801;28;20056;-66
2023/07/03 03:51:54;;;;;;;16.90;5.93;;;;;;;20.27;59.62;100858.22;5072517;28;20067;-66
2023/07/03 03:54:26;;;;;;;13.57;6.05;;;;;;;21.14;56.89;100858.72;5072367;28;20063;-66
2023/07/03 03:56:59;;;;;;;14.95;5.35;;;;;;;21.60;55.36;100853.63;5072100;28;20048;-67
2023/07/03 03:59:27;;;;;;;13.55;4.70;;;;;;;21.93;54.25;100853.59;5047025;28;20048;-66
2023/07/03 04:01:54;;;;;;;13.55;5.35;;;;;;;22.28;53.01;100842.69;5072283;28;20056;-66
2023/07/03 04:04:22;;;;;;;13.48;5.43;;;;;;;22.39;52.77;100859.63;5073302;28;20068;-66
2023/07/03 04:06:51;;;;;;;14.10;5.65;;;;;;;22.45;52.28;100854.44;5072945;28;20713;-67
2023/07/03 04:09:18;;;;;;;13.25;5.80;;;;;;;22.55;52.00;100864.97;5072652;28;20419;-66
2023/07/03 04:11:45;;;;;;;11.93;5.65;;;;;;;22.47;52.29;100850.06;5057661;28;20053;-67
2023/07/03 04:14:15;;;;;;;11.73;5.10;;;;;;;22.63;52.03;100861.03;5054604;28;20360;-66
2023/07/03 04:16:43;;;;;;;13.85;5.45;;;;;;;22.63;52.09;100859.00;5052985;28;20416;-66
2023/07/03 04:19:10;;;;;;;14.70;5.00;;;;;;;22.69;51.77;100856.63;5066148;28;20045;-65
2023/07/03 04:21:39;;;;;;;11.77;5.07;;;;;;;22.66;51.92;100860.25;5090633;28;20044;-66
2023/07/03 04:24:06;;;;;;;14.27;5.22;;;;;;;22.61;52.13;100857.81;5074079;28;20052;-67
2023/07/03 04:26:36;;;;;;;12.23;5.53;;;;;;;22.57;52.24;100857.78;5080553;28;20063;-66
2023/07/03 04:29:04;;;;;;;;;;;;;;;22.57;52.58;100856.97;5059219;28;20053;-66
2023/07/03 04:31:32;;;;;;;12.10;5.30;;;;;;;22.70;52.14;100867.47;5053497;28;19921;-67
2023/07/03 04:34:00;;;;;;;11.35;5.00;;;;;;;22.62;52.31;100867.81;5057290;28;20056;-67
2023/07/03 04:36:27;;;;;;;14.32;5.57;;;;;;;22.67;52.42;100857.03;5057063;28;20056;-66
2023/07/03 04:38:57;;;;;;;13.73;5.10;;;;;;;22.64;52.36;100855.03;5058565;28;20041;-67
2023/07/03 04:41:27;;;;;;;13.77;5.03;;;;;;;22.63;52.37;100855.41;5076816;28;20063;-66
2023/07/03 04:43:57;;;;;;;13.40;5.80;;;;;;;22.74;52.09;100847.84;5055627;28;20069;-67
2023/07/03 04:46:25;;;;;;;;;;;;;;;22.74;51.95;100848.66;5086076;28;20044;-67
2023/07/03 04:48:55;;;;;;;15.65;5.00;;;;;;;22.70;52.28;100847.81;5094727;28;19920;-67
2023/07/03 04:51:22;;;;;;;10.32;5.13;;;;;;;22.74;52.27;100856.25;5059238;28;20416;-66
2023/07/03 04:53:50;;;;;;;14.32;5.40;;;;;;;22.76;52.14;100856.69;5061700;28;20079;-66
2023/07/03 04:56:18;;;;;;;10.10;4.40;;;;;;;22.84;51.91;100856.34;5075861;28;20048;-66
2023/07/03 04:58:47;;;;;;;12.50;5.10;;;;;;;22.79;52.17;100850.28;5057798;28;20053;-68
2023/07/03 05:01:15;;;;;;;13.77;5.20;;;;;;;22.77;52.10;100855.50;5075768;28;20048;-66
2023/07/03 05:03:42;;;;;;;12.25;5.05;;;;;;;22.87;52.10;100849.94;5076751;28;20344;-67
2023/07/03 05:06:10;;;;;;;10.00;4.15;;;;;;;22.82;52.21;100858.72;5076758;28;20072;-68
2023/07/03 05:08:38;;;;;;;10.13;4.47;;;;;;;22.78;52.28;100854.28;5076052;28;20052;-66
2023/07/03 05:11:05;;;;;;;14.98;5.10;;;;;;;22.87;52.03;100858.38;5076908;28;20056;-67
2023/07/03 05:13:32;;;;;;;15.38;4.85;;;;;;;22.78;51.97;100857.91;5075430;28;20052;-67
2023/07/03 05:16:00;;;;;;;12.25;5.13;;;;;;;22.78;51.97;100860.72;5070203;28;20044;-67
2023/07/03 05:18:27;;;;;;;13.63;5.22;;;;;;;22.61;52.60;100860.63;5056037;28;20053;-67
2023/07/03 05:20:55;;;;;;;14.73;5.28;;;;;;;22.62;52.80;100856.59;5088150;28;20059;-68
2023/07/03 05:23:22;;;;;;;10.85;4.70;;;;;;;22.59;52.43;100863.00;5058079;28;20429;-67
2023/07/03 05:25:50;;;;;;;12.43;5.25;;;;;;;22.58;53.00;100867.03;5086880;28;20051;-67
2023/07/03 05:28:17;;;;;;;14.23;5.47;;;;;;;22.56;53.13;100866.59;5068025;28;20060;-67
2023/07/03 05:30:45;;;;;;;11.52;5.47;;;;;;;22.54;53.11;100864.19;5057344;28;20067;-67
2023/07/03 05:33:15;;;;;;;14.30;4.88;;;;;;;22.58;52.88;100859.38;5070334;28;20461;-68
2023/07/03 05:35:43;;;;;;;11.57;4.93;;;;;;;22.77;52.33;100858.31;5074023;28;20057;-67
2023/07/03 05:38:18;;;;;;;13.60;5.00;;;;;;;22.90;52.26;100859.56;5063918;28;20061;-66
2023/07/03 05:40:46;;;;;;;13.20;5.05;;;;;;;22.94;52.24;100851.97;5075180;28;20052;-67
2023/07/03 05:43:13;;;;;;;10.40;4.90;;;;;;;22.99;51.99;100849.59;5067184;28;20063;-67
2023/07/03 05:45:41;;;;;;;11.13;5.28;;;;;;;22.93;52.20;100850.34;5085372;28;20516;-67
2023/07/03 05:48:08;;;;;;;12.40;4.72;;;;;;;22.87;52.48;100857.56;5094500;28;20435;-67
2023/07/03 05:50:36;;;;;;;11.98;4.78;;;;;;;22.97;52.17;100848.38;5084464;28;20056;-67
2023/07/03 05:53:03;;;;;;;13.07;4.65;;;;;;;22.88;52.10;100851.53;5077092;28;20040;-67
2023/07/03 05:55:31;;;;;;;13.45;4.50;;;;;;;22.90;52.53;100866.00;5087197;28;20052;-67
2023/07/03 05:57:58;;;;;;;11.63;5.00;;;;;;;22.77;52.69;100852.69;5075556;28;20057;-66
2023/07/03 06:00:27;;;;;;;9.98;4.18;;;;;;;22.84;52.42;100861.16;5090880;28;20048;-67
2023/07/03 06:02:55;;;;;;;11.80;4.78;;;;;;;22.89;52.53;100855.94;5094434;28;20044;-67
2023/07/03 06:05:23;;;;;;;11.13;4.70;;;;;;;22.89;52.58;100855.16;5078432;28;20131;-67
2023/07/03 06:07:50;;;;;;;10.48;4.75;;;;;;;23.04;52.13;100854.03;5095954;28;20052;-67
2023/07/03 06:10:18;;;;;;;11.18;4.68;;;;;;;23.14;51.91;100862.50;5093884;28;20415;-67
2023/07/03 06:12:45;;;;;;;10.02;4.68;;;;;;;23.12;51.67;100864.09;5079346;28;20044;-67
2023/07/03 06:15:13;;;;;;;10.38;4.10;;;;;;;23.10;51.70;100858.09;5075397;28;20056;-68
2023/07/03 06:17:40;;;;;;;10.38;4.30;;;;;;;23.22;51.57;100868.97;5075167;28;20079;-67
2023/07/03 06:20:10;;;;;;;11.10;4.78;;;;;;;23.00;51.79;100865.25;5076805;28;20074;-67
2023/07/03 06:22:38;;;;;;;;;;;;;;;22.92;53.40;100872.03;5076408;28;20053;-66
2023/07/03 06:25:06;;;;;;;11.75;4.90;;;;;;;22.83;56.16;100868.78;5075392;28;20371;-66
2023/07/03 06:27:34;;;;;;;12.25;4.53;;;;;;;22.77;54.41;100867.53;5056263;28;20052;-66
2023/07/03 06:30:01;;;;;;;16.05;5.78;;;;;;;22.89;53.79;100863.59;5075215;28;20044;-66
2023/07/03 06:32:29;;;;;;;13.20;5.32;;;;;;;23.09;57.43;100859.28;5061104;28;20448;-67
2023/07/03 06:34:57;;;;;;;18.95;9.40;;;;;;;23.09;57.66;100862.91;5056698;28;20064;-66
2023/07/03 06:37:24;;;;;;;18.10;4.65;;;;;;;23.01;57.19;100864.03;5082086;28;20057;-64
2023/07/03 06:39:52;;;;;;;10.88;4.72;;;;;;;23.41;55.39;100863.06;5066100;28;20049;-63
2023/07/03 06:42:19;;;;;;;12.27;4.78;;;;;;;22.94;55.15;100871.66;5055080;28;20045;-62
2023/07/03 06:44:55;;;;;;;11.45;4.60;;;;;;;22.84;53.05;100861.94;5056939;28;20052;-63
2023/07/03 06:47:22;;;;;;;9.85;4.10;;;;;;;22.13;53.30;100871.84;5070090;28;20063;-62
2023/07/03 06:49:50;;;;;;;11.10;4.35;;;;;;;21.91;53.90;100863.63;5056582;28;20049;-63
2023/07/03 06:52:17;;;;;;;11.55;4.38;;;;;;;22.11;54.03;100868.59;5055270;28;20063;-65
2023/07/03 06:54:47;;;;;;;12.38;4.90;;;;;;;22.01;53.44;100863.72;5053218;28;20052;-65
2023/07/03 06:57:15;;;;;;;8.38;4.07;;;;;;;22.20;53.01;100859.88;5052614;28;20049;-63
2023/07/03 06:59:42;;;;;;;8.45;4.20;;;;;;;22.71;52.41;100863.50;5046838;28;20056;-63
2023/07/03 07:02:10;;;;;;;10.95;4.10;;;;;;;22.88;51.50;100864.78;5049458;28;20045;-63
2023/07/03 07:04:37;;;;;;;10.75;4.28;;;;;;;22.94;51.38;100869.66;5055677;28;20061;-63
2023/07/03 07:07:05;;;;;;;10.38;4.63;;;;;;;23.22;50.54;100866.94;5054681;28;20075;-62
2023/07/03 07:09:33;;;;;;;12.02;4.78;;;;;;;23.33;50.28;100864.22;5058003;28;20439;-62
2023/07/03 07:12:01;;;;;;;7.38;4.03;;;;;;;23.55;49.45;100865.09;5059494;28;20044;-62
2023/07/03 07:14:28;;;;;;;17.20;4.63;;;;;;;23.72;48.95;100879.22;5058977;28;20055;-62
2023/07/03 07:16:57;;;;;;;9.70;4.20;;;;;;;23.65;48.92;100882.00;5064727;28;20053;-62
2023/07/03 07:19:24;;;;;;;12.30;4.28;;;;;;;23.75;49.01;100886.03;5057500;28;20048;-62
2023/07/03 07:21:52;;;;;;;9.75;4.38;;;;;;;23.75;48.84;100875.59;5061611;28;20055;-62
2023/07/03 07:24:24;;;;;;;10.00;3.63;;;;;;;23.66;48.66;100877.19;5060981;28;20045;-61
2023/07/03 07:26:55;;;;;;;9.90;4.15;;;;;;;23.71;48.74;100876.81;5057041;28;20543;-63
2023/07/03 07:29:24;;;;;;;7.22;3.83;;;;;;;23.56;49.07;100886.38;5057527;28;20052;-62
2023/07/03 07:31:54;;;;;;;13.35;4.47;;;;;;;23.82;48.76;100877.63;5058984;28;20053;-63
2023/07/03 07:34:21;;;;;;;14.18;4.60;;;;;;;23.75;48.50;100869.97;5057987;28;20053;-63
2023/07/03 07:36:49;;;;;;;10.93;4.15;;;;;;;23.80;48.50;100868.78;5056167;28;20060;-62
2023/07/03 07:39:20;;;;;;;9.00;4.15;;;;;;;23.91;47.99;100878.03;5052736;28;20052;-61
2023/07/03 07:41:50;;;;;;;9.90;4.63;;;;;;;23.80;48.51;100882.88;5053093;28;20055;-63
2023/07/03 07:44:18;;;;;;;11.50;4.55;;;;;;;23.68;49.05;100883.19;5057903;28;20041;-63
2023/07/03 07:46:45;;;;;;;8.52;3.92;;;;;;;23.72;49.23;100872.78;5048632;28;20052;-62
2023/07/03 07:49:13;;;;;;;23.58;4.28;;;;;;;23.67;49.52;100878.78;5061355;28;20061;-62
2023/07/03 07:51:41;;;;;;;10.38;3.83;;;;;;;23.73;48.86;100878.00;5061734;28;20049;-61
2023/07/03 07:54:08;;;;;;;8.02;3.75;;;;;;;23.77;49.06;100887.25;5043210;28;20453;-60
2023/07/03 07:56:36;;;;;;;10.32;4.43;;;;;;;23.85;48.92;100882.47;5059242;28;20037;-63
2023/07/03 07:59:03;;;;;;;11.88;4.28;;;;;;;23.62;49.43;100882.00;5057768;28;20060;-62
2023/07/03 08:01:30;;;;;;;11.15;4.50;;;;;;;23.28;50.33;100887.09;5048686;28;20041;-61
2023/07/03 08:03:58;;;;;;;8.55;3.97;;;;;;;22.83;51.08;100884.81;5051725;28;20060;-62
2023/07/03 08:06:27;;;;;;;11.80;4.60;;;;;;;22.93;51.01;100892.50;5059285;28;20049;-61
2023/07/03 08:08:54;;;;;;;11.57;4.88;;;;;;;23.11;50.97;100894.22;5057415;28;20499;-61
2023/07/03 08:11:21;;;;;;;11.23;4.22;;;;;;;22.72;51.56;100892.34;5059381;28;20532;-62
2023/07/03 08:13:49;;;;;;;8.82;4.38;;;;;;;22.53;51.26;100889.78;5058810;28;20057;-61
2023/07/03 08:16:17;;;;;;;10.80;4.50;;;;;;;22.51;51.07;100897.81;5045895;28;20056;-60
2023/07/03 08:18:45;;;;;;;11.73;4.20;;;;;;;23.10;50.50;100892.59;5055780;28;20060;-59
2023/07/03 08:21:16;;;;;;;10.10;4.53;;;;;;;23.34;49.81;100886.31;5056457;28;20442;-61
2023/07/03 08:23:43;;;;;;;9.95;4.57;;;;;;;23.34;49.01;100885.53;5067778;28;20060;-61
2023/07/03 08:26:18;;;;;;;11.02;4.70;;;;;;;23.03;50.04;100881.31;5056082;28;20385;-60
2023/07/03 08:28:45;;;;;;;10.93;4.75;;;;;;;23.06;49.91;100882.53;5053340;28;20060;-60
2023/07/03 08:31:13;;;;;;;11.75;4.55;;;;;;;23.24;49.54;100884.22;5057355;28;20048;-60
2023/07/03 08:33:41;;;;;;;13.02;4.45;;;;;;;23.66;48.23;100866.72;5053090;28;20068;-59
2023/07/03 08:36:08;;;;;;;10.32;4.15;;;;;;;23.38;48.85;100878.69;5057066;28;20097;-59
2023/07/03 08:38:38;;;;;;;8.07;4.10;;;;;;;22.45;48.66;100885.31;5056197;28;20052;-59
2023/07/03 08:41:09;;;;;;;10.88;4.93;;;;;;;21.87;51.60;100886.03;5057076;28;20595;-60
2023/07/03 08:43:40;;;;;;;10.32;5.13;;;;;;;21.40;53.62;100891.47;5061198;28;20055;-60
2023/07/03 08:46:27;;;;;;;;;;;;;;;22.34;51.78;100888.84;5061507;28;20044;-58
2023/07/03 08:48:57;;;;;;;14.88;4.70;;;;;;;22.60;50.50;100892.69;5056279;28;19928;-59
2023/07/03 08:51:28;;;;;;;11.25;5.10;;;;;;;22.82;49.50;100889.63;5054323;28;20048;-59
2023/07/03 08:54:00;;;;;;;9.15;4.95;;;;;;;23.18;48.91;100885.81;5051068;28;20055;-58
2023/07/03 08:56:29;;;;;;;9.32;4.43;;;;;;;22.92;48.47;100888.91;5058243;28;20045;-59
2023/07/03 08:58:56;;;;;;;12.20;5.05;;;;;;;22.16;51.05;100898.31;5052345;28;20041;-60
2023/07/03 09:01:41;;;;;;;15.20;4.72;;;;;;;21.77;52.16;100897.09;5058146;28;20495;-61
2023/07/03 09:04:24;;;;;;;8.73;4.25;;;;;;;21.45;54.09;100902.34;5054850;28;20045;-60
2023/07/03 09:06:58;;;;;;;8.75;4.60;;;;;;;21.71;53.02;100910.66;5055007;28;20056;-62
2023/07/03 09:09:49;;;;;;;10.57;4.68;;;;;;;22.06;52.78;100916.66;5061497;28;20045;-58
2023/07/03 09:12:23;;;;;;;9.40;4.57;;;;;;;22.51;50.93;100907.03;5055855;28;20048;-62
2023/07/03 09:14:56;;;;;;;19.38;5.28;;;;;;;22.12;52.65;100909.50;5051790;28;20052;-59
2023/07/03 09:17:24;;;;;;;13.05;5.22;;;;;;;;;;5062797;28;20053;-60
2023/07/03 09:19:55;;;;;;;12.52;5.03;;;;;;;22.13;52.71;100913.94;5061873;28;20056;-61
2023/07/03 09:22:27;;;;;;;10.48;4.78;;;;;;;22.16;51.90;100906.72;5076870;28;20428;-61
2023/07/03 09:24:57;;;;;;;11.65;6.25;;;;;;;22.23;51.40;100903.97;5054481;28;20041;-60
2023/07/03 09:27:26;;;;;;;13.85;6.20;;;;;;;21.62;53.69;100912.94;5062233;28;20060;-61
2023/07/03 09:30:04;;;;;;;10.82;5.78;;;;;;;21.52;54.63;100902.41;5062176;28;20044;-61
2023/07/03 09:32:32;;;;;;;14.98;6.13;;;;;;;21.45;54.25;100902.34;5056289;28;20051;-61
2023/07/03 09:35:07;;;;;;;12.70;5.75;;;;;;;22.06;53.18;100893.41;5039510;28;20044;-61
2023/07/03 09:37:41;;;;;;;12.05;5.07;;;;;;;22.46;51.96;100895.34;5065180;28;20040;-61
2023/07/03 09:40:34;;;;;;;9.77;4.97;;;;;;;23.02;50.05;100890.16;5057919;28;20041;-61
2023/07/03 09:43:02;;;;;;;13.20;5.60;;;;;;;23.18;49.40;100882.19;5062979;28;20060;-61
2023/07/03 09:45:33;;;;;;;10.15;4.75;;;;;;;23.04;49.53;100885.75;5058834;28;20131;-65
2023/07/03 09:48:04;;;;;;;12.32;4.70;;;;;;;22.64;50.19;100897.13;5061031;28;20067;-64
2023/07/03 09:50:36;;;;;;;11.50;4.88;;;;;;;22.32;50.38;100896.03;5055173;28;20049;-64
2023/07/03 09:53:05;;;;;;;8.10;4.30;;;;;;;22.17;51.85;100897.94;5056889;28;20049;-65
2023/07/03 09:55:36;;;;;;;9.32;5.05;;;;;;;22.51;51.10;100895.78;5058393;28;20044;-65
2023/07/03 09:58:14;;;;;;;12.45;4.88;;;;;;;22.95;49.93;100895.72;5060644;28;20048;-63
2023/07/03 10:00:50;;;;;;;10.00;4.68;;;;;;;22.07;51.17;100904.22;5057340;28;20056;-63
2023/07/03 10:03:28;;;;;;;10.63;5.40;;;;;;;22.14;50.81;100904.31;5059566;28;20056;-65
2023/07/03 10:06:12;;;;;;;11.50;5.13;;;;;;;21.37;54.59;100911.03;5063066;28;20571;-65
2023/07/03 10:08:49;;;;;;;9.88;4.22;;;;;;;21.96;52.88;100911.75;5060862;28;20048;-64
2023/07/03 10:11:45;;;;;;;13.93;5.03;;;;;;;21.59;54.17;100907.28;5064829;28;20068;-63
2023/07/03 10:14:20;;;;;;;12.82;5.35;;;;;;;21.64;54.89;100926.56;5061303;28;20057;-64
2023/07/03 10:16:47;;;;;;;11.75;4.40;;;;;;;21.48;53.54;100915.56;5048164;28;20056;-63
2023/07/03 10:19:15;;;;;;;11.60;4.68;;;;;;;22.12;54.39;100911.50;5058470;28;20048;-64
2023/07/03 10:21:42;;;;;;;12.77;4.78;;;;;;;22.10;52.33;100917.50;5059337;28;20456;-65
2023/07/03 10:24:10;;;;;;;9.20;4.75;;;;;;;22.42;51.33;100920.59;5061232;28;20052;-65
2023/07/03 10:26:42;;;;;;;9.05;4.72;;;;;;;22.22;51.98;100922.84;5059100;28;20060;-63
2023/07/03 10:29:13;;;;;;;12.13;4.30;;;;;;;22.20;51.81;100927.22;5073536;28;20040;-63
2023/07/03 10:31:46;;;;;;;9.23;3.50;;;;;;;22.07;51.15;100923.88;5058478;28;20055;-63
2023/07/03 10:34:19;;;;;;;11.32;4.07;;;;;;;22.25;51.44;100927.66;5054975;28;20049;-63
2023/07/03 10:36:49;;;;;;;12.93;4.00;;;;;;;22.53;51.28;100929.09;5031562;28;20164;-64
2023/07/03 10:39:49;;;;;;;10.77;3.63;;;;;;;22.44;50.67;100923.81;5056282;28;20071;-64
2023/07/03 10:42:39;;;;;;;12.90;4.82;;;;;;;22.88;49.13;100909.72;5058794;28;20056;-64
2023/07/03 10:45:09;;;;;;;8.38;3.90;;;;;;;22.97;50.62;100916.63;5053835;28;20044;-65
2023/07/03 10:47:49;;;;;;;10.80;4.47;;;;;;;23.26;46.42;100920.38;5046388;28;20055;-64
2023/07/03 10:50:17;;;;;;;10.40;5.20;;;;;;;23.19;46.71;100909.91;5056236;28;20044;-65
2023/07/03 10:52:59;;;;;;;16.90;7.20;;;;;;;22.71;50.06;100918.84;5053705;28;21141;-64
2023/07/03 10:55:48;;;;;;;13.10;7.05;;;;;;;22.98;49.07;100912.59;5056986;28;20063;-64
2023/07/03 10:58:29;;;;;;;10.02;4.95;;;;;;;22.95;46.47;100901.34;5041504;28;20059;-64
2023/07/03 11:01:07;;;;;;;11.70;4.07;;;;;;;22.11;45.79;100915.50;5063353;28;20064;-64
2023/07/03 11:04:21;;;;;;;11.45;3.92;;;;;;;21.68;46.20;100910.59;5039782;28;20112;-70
2023/07/03 11:06:58;;;;;;;10.88;4.03;;;;;;;21.75;48.18;100917.09;5057079;28;20063;-64
2023/07/03 11:09:50;;;;;;;9.60;4.43;;;;;;;21.76;45.27;100912.31;5068471;28;20057;-63
2023/07/03 11:12:47;;;;;;;9.75;3.70;;;;;;;21.80;45.38;100901.97;5055425;28;20041;-64
2023/07/03 11:15:27;;;;;;;8.63;3.58;;;;;;;22.08;42.60;100903.06;5052183;28;20051;-65
2023/07/03 11:17:57;;;;;;;;;;;;;;;22.74;44.76;100898.41;5053724;28;20060;-64
2023/07/03 11:21:00;;;;;;;8.60;3.53;;;;;;;23.60;45.24;100890.84;5069277;28;19920;-64
2023/07/03 11:24:06;;;;;;;9.88;3.63;;;;;;;23.40;40.75;100900.78;5056348;28;20064;-64
2023/07/03 11:26:38;;;;;;;10.00;3.85;;;;;;;22.68;39.49;100894.34;5039393;28;20064;-64
2023/07/03 11:29:11;;;;;;;10.05;3.83;;;;;;;22.67;41.95;100889.91;5054491;28;20555;-64
2023/07/03 11:31:39;;;;;;;;;;;;;;;22.99;43.06;100874.09;5055132;28;20064;-64
2023/07/03 11:34:10;;;;;;;10.85;3.53;;;;;;;22.92;37.30;100876.84;5058124;28;19954;-65
2023/07/03 11:36:42;;;;;;;15.48;5.35;;;;;;;22.52;38.36;100894.63;5055747;28;20053;-65